MMML

General Rodolfo Sánchez Taboada International Airport

Mexicali, Mexico
TAF MMML 131646Z 1318/1418 01010KT P6SM SKC FM140400 32010KT P6SM BKN250 FM141600 36010KT P6SM BKN200
Issued Valid From Valid To
Dec-13 @ 16:46 UTC
(11 hours ago)
Dec-13 @ 18:00 UTC
(10 hours ago)
Dec-14 @ 18:00 UTC
(in 14 hours)
Expired Click to View Dec-13 @ 18:00 to Dec-14 @ 04:00
TAF MMML 131646Z 1318/1418 01010KT P6SM SKC
Wind Visibility Clouds
10° at 10 knots Greater than 6 miles
  • Clear skies
From Dec-14 @ 04:00 to Dec-14 @ 16:00
FM140400 32010KT P6SM BKN250
Wind Visibility Clouds
320° at 10 knots Greater than 6 miles
  • Broken at 25,000' AGL
From Dec-14 @ 16:00 to Dec-14 @ 18:00
FM141600 36010KT P6SM BKN200
Wind Visibility Clouds
360° at 10 knots Greater than 6 miles
  • Broken at 20,000' AGL
TAF MMML 131646Z 1318/1418 01010KT P6SM SKC FM140400 32010KT P6SM BKN250 FM141600 36010KT P6SM BKN200
Issued Dec-13 @ 16:46 UTC
(11 hours ago)
Valid From Dec-13 @ 18:00 UTC
(10 hours ago)
Valid To Dec-14 @ 18:00 UTC
(in 14 hours)
Dec-13 @ 18:00 - Dec-14 @ 04:00
Wind Visibility
10° at 10 knots Greater than 6 miles
Clouds
  • Clear skies
From Dec-14 @ 04:00 - Dec-14 @ 16:00
Wind Visibility
320° at 10 knots Greater than 6 miles
Clouds
  • Broken at 25,000' AGL
From Dec-14 @ 16:00 - Dec-14 @ 18:00
Wind Visibility
360° at 10 knots Greater than 6 miles
Clouds
  • Broken at 20,000' AGL